Time;durP1;ratioP1;P1;durP2;ratioP2;P2;SDS_P1;SDS_P2;PMS_P1;PMS_P2;Temp;Humidity;BMP_temperature;BMP_pressure;BME280_temperature;BME280_humidity;BME280_pressure;Samples;Min_cycle;Max_cycle;Signal;HPM_P1;HPM_P2
2023/07/12 00:00:32;;;;;;;9.38;6.37;;;;;;;;;;4387309;32;317595;-82
2023/07/12 00:03:01;;;;;;;8.90;6.05;;;;;;;;;;4396803;32;334367;-82
2023/07/12 00:05:29;;;;;;;7.10;6.40;;;;;;;;;;4396102;32;343555;-82
2023/07/12 00:07:57;;;;;;;8.27;6.93;;;;;;;;;;4385056;32;418040;-82
2023/07/12 00:10:26;;;;;;;8.40;5.53;;;;;;;;;;4397946;32;317870;-84
2023/07/12 00:12:56;;;;;;;11.12;7.10;;;;;;;;;;4384952;32;414633;-82
2023/07/12 00:15:26;;;;;;;8.68;6.28;;;;;;;;;;4396476;32;318428;-82
2023/07/12 00:17:54;;;;;;;13.15;6.43;;;;;;;;;;4376741;32;416483;-82
2023/07/12 00:20:29;;;;;;;9.30;6.43;;;;;;;;;;4396910;32;318338;-82
2023/07/12 00:22:57;;;;;;;11.50;5.28;;;;;;;;;;4383626;32;416602;-85
2023/07/12 00:25:26;;;;;;;7.78;6.43;;;;;;;;;;4396571;32;346522;-82
2023/07/12 00:27:53;;;;;;;7.97;5.75;;;;;;;;;;4386456;32;317174;-83
2023/07/12 00:30:21;;;;;;;8.73;6.60;;;;;;;;;;4391871;32;317400;-82
2023/07/12 00:32:49;;;;;;;9.40;6.30;;;;;;;;;;4386270;32;317269;-82
2023/07/12 00:35:18;;;;;;;7.85;6.37;;;;;;;;;;4396507;32;316924;-82
2023/07/12 00:37:46;;;;;;;10.27;6.80;;;;;;;;;;4386594;32;316709;-82
2023/07/12 00:40:48;;;;;;;12.37;6.03;;;;;;;;;;4399682;32;318759;-82
2023/07/12 00:43:21;;;;;;;10.65;6.65;;;;;;;;;;4387467;32;418288;-84
2023/07/12 00:45:50;;;;;;;12.23;6.55;;;;;;;;;;4389045;32;317729;-82
2023/07/12 00:48:19;;;;;;;11.55;7.28;;;;;;;;;;4399541;32;317614;-82
2023/07/12 00:50:47;;;;;;;11.68;6.65;;;;;;;;;;4390061;32;317948;-82
2023/07/12 00:53:17;;;;;;;8.00;6.50;;;;;;;;;;4400000;32;318092;-90
2023/07/12 00:56:11;;;;;;;11.43;7.28;;;;;;;;;;4375734;32;317249;-82
2023/07/12 00:58:49;;;;;;;10.88;6.22;;;;;;;;;;4388263;32;334117;-82
2023/07/12 01:01:17;;;;;;;14.02;7.10;;;;;;;;;;4394756;32;318601;-82
2023/07/12 01:03:46;;;;;;;9.02;6.78;;;;;;;;;;4389719;32;318405;-82
2023/07/12 01:06:16;;;;;;;14.20;7.60;;;;;;;;;;4371006;32;316443;-82
2023/07/12 01:08:45;;;;;;;12.60;7.15;;;;;;;;;;4381613;32;318364;-81
2023/07/12 01:11:14;;;;;;;8.85;6.70;;;;;;;;;;4398498;32;358383;-82
2023/07/12 01:13:43;;;;;;;8.50;7.28;;;;;;;;;;4389572;32;317326;-82
2023/07/12 01:16:11;;;;;;;15.05;7.10;;;;;;;;;;4398461;32;316845;-82
2023/07/12 01:18:39;;;;;;;10.30;7.47;;;;;;;;;;4389190;32;318483;-82
2023/07/12 01:21:13;;;;;;;9.45;6.87;;;;;;;;;;4399321;32;318224;-81
2023/07/12 01:23:42;;;;;;;9.07;7.25;;;;;;;;;;4389616;32;317422;-82
2023/07/12 01:26:22;;;;;;;11.75;7.40;;;;;;;;;;4399951;32;317380;-82
2023/07/12 01:28:52;;;;;;;9.60;6.97;;;;;;;;;;4386907;32;318151;-82
2023/07/12 01:31:19;;;;;;;12.75;7.20;;;;;;;;;;4393642;32;317401;-82
2023/07/12 01:33:46;;;;;;;11.02;6.90;;;;;;;;;;4389527;32;317941;-82
2023/07/12 01:36:14;;;;;;;10.25;7.05;;;;;;;;;;4399551;32;318147;-81
2023/07/12 01:38:41;;;;;;;10.50;7.03;;;;;;;;;;4388384;32;318478;-82
2023/07/12 01:41:08;;;;;;;16.12;7.30;;;;;;;;;;4398500;32;317823;-82
2023/07/12 01:43:37;;;;;;;10.52;7.00;;;;;;;;;;4388214;32;318363;-81
2023/07/12 01:46:04;;;;;;;16.15;8.13;;;;;;;;;;4391304;32;318098;-81
2023/07/12 01:48:31;;;;;;;9.35;7.60;;;;;;;;;;4386318;32;317570;-81
2023/07/12 01:50:58;;;;;;;9.55;7.68;;;;;;;;;;4390312;32;316784;-82
2023/07/12 01:53:27;;;;;;;11.40;7.87;;;;;;;;;;4398158;32;316806;-81
2023/07/12 01:55:54;;;;;;;12.55;7.50;;;;;;;;;;4385443;32;419008;-82
2023/07/12 01:58:21;;;;;;;11.63;7.00;;;;;;;;;;4399120;32;317800;-81
2023/07/12 02:00:48;;;;;;;9.45;6.97;;;;;;;;;;4389011;32;317579;-82
2023/07/12 02:03:15;;;;;;;8.20;6.95;;;;;;;;;;4384975;32;316646;-81
2023/07/12 02:05:42;;;;;;;10.73;7.80;;;;;;;;;;4387240;32;350662;-82
2023/07/12 02:08:09;;;;;;;19.17;7.30;;;;;;;;;;4397836;32;317480;-81
2023/07/12 02:10:38;;;;;;;9.70;6.87;;;;;;;;;;4380217;32;317692;-82
2023/07/12 02:13:05;;;;;;;9.73;7.10;;;;;;;;;;4392734;32;317358;-81
2023/07/12 02:15:34;;;;;;;7.90;6.25;;;;;;;;;;4388519;32;317677;-81
2023/07/12 02:18:02;;;;;;;13.30;7.75;;;;;;;;;;4397397;32;317230;-80
2023/07/12 02:20:29;;;;;;;10.85;7.87;;;;;;;;;;4386283;32;341072;-81
2023/07/12 02:22:56;;;;;;;12.25;8.07;;;;;;;;;;4398521;32;318438;-80
2023/07/12 02:25:23;;;;;;;11.20;7.78;;;;;;;;;;4398534;32;317605;-83
2023/07/12 02:27:56;;;;;;;15.43;7.47;;;;;;;;;;4388885;32;318174;-81
2023/07/12 02:30:25;;;;;;;10.13;7.15;;;;;;;;;;4392119;32;318207;-81
2023/07/12 02:32:53;;;;;;;15.45;8.75;;;;;;;;;;4387327;32;317735;-81
2023/07/12 02:35:21;;;;;;;8.65;6.50;;;;;;;;;;4398660;32;317761;-81
2023/07/12 02:37:48;;;;;;;8.18;6.10;;;;;;;;;;4388624;32;317105;-81
2023/07/12 02:40:15;;;;;;;12.10;6.47;;;;;;;;;;4397841;32;317167;-80
2023/07/12 02:42:42;;;;;;;11.45;7.03;;;;;;;;;;4379860;32;317747;-81
2023/07/12 02:45:12;;;;;;;8.95;6.95;;;;;;;;;;4397003;32;326381;-80
2023/07/12 02:47:38;;;;;;;12.93;7.15;;;;;;;;;;4388173;32;317130;-80
2023/07/12 02:50:06;;;;;;;12.60;6.72;;;;;;;;;;4397043;32;318441;-80
2023/07/12 02:52:36;;;;;;;12.32;6.45;;;;;;;;;;4376865;32;317437;-81
2023/07/12 02:55:03;;;;;;;8.48;7.37;;;;;;;;;;4397954;32;318128;-80
2023/07/12 02:57:29;;;;;;;8.93;6.45;;;;;;;;;;4388600;32;317475;-81
2023/07/12 02:59:56;;;;;;;10.00;6.47;;;;;;;;;;4397384;32;317233;-81
2023/07/12 03:02:24;;;;;;;8.52;6.50;;;;;;;;;;4395856;32;335722;-81
2023/07/12 03:04:52;;;;;;;11.40;6.55;;;;;;;;;;4387295;32;316606;-81
2023/07/12 03:07:20;;;;;;;8.23;6.93;;;;;;;;;;4397134;32;317854;-82
2023/07/12 03:09:47;;;;;;;9.00;6.87;;;;;;;;;;4388348;32;316817;-81
2023/07/12 03:12:14;;;;;;;10.75;6.75;;;;;;;;;;4396610;32;317509;-81
2023/07/12 03:14:40;;;;;;;10.07;6.78;;;;;;;;;;4386010;32;317532;-81
2023/07/12 03:17:07;;;;;;;11.32;6.80;;;;;;;;;;4396727;32;318357;-81
2023/07/12 03:19:36;;;;;;;11.60;6.80;;;;;;;;;;4388112;32;318380;-81
2023/07/12 03:22:03;;;;;;;11.73;7.60;;;;;;;;;;4384379;32;318134;-82
2023/07/12 03:24:30;;;;;;;11.23;7.82;;;;;;;;;;4386976;32;317826;-82
2023/07/12 03:26:57;;;;;;;11.45;7.15;;;;;;;;;;4397909;32;318004;-81
2023/07/12 03:29:23;;;;;;;11.82;7.70;;;;;;;;;;4397984;32;318232;-80
2023/07/12 03:31:50;;;;;;;8.13;6.03;;;;;;;;;;4386389;32;318067;-81
2023/07/12 03:34:17;;;;;;;9.48;6.80;;;;;;;;;;4398059;32;317720;-80
2023/07/12 03:36:45;;;;;;;8.77;7.43;;;;;;;;;;4387824;32;317266;-81
2023/07/12 03:39:12;;;;;;;9.38;7.35;;;;;;;;;;4398117;32;316403;-80
2023/07/12 03:41:39;;;;;;;12.43;7.57;;;;;;;;;;4388295;32;316759;-81
2023/07/12 03:44:05;;;;;;;17.40;9.02;;;;;;;;;;4397930;32;317691;-80
2023/07/12 03:46:32;;;;;;;15.35;8.55;;;;;;;;;;4384752;32;352947;-81
2023/07/12 03:48:59;;;;;;;19.05;8.25;;;;;;;;;;4395393;32;340790;-81
2023/07/12 03:51:26;;;;;;;19.67;8.52;;;;;;;;;;4397845;32;317760;-81
2023/07/12 03:53:54;;;;;;;14.23;8.15;;;;;;;;;;4387642;32;317361;-80
2023/07/12 03:56:20;;;;;;;17.05;8.02;;;;;;;;;;4397965;32;318419;-80
2023/07/12 03:58:47;;;;;;;14.80;8.10;;;;;;;;;;4386534;32;318453;-80
2023/07/12 04:01:14;;;;;;;13.07;7.60;;;;;;;;;;4396126;32;318341;-80
2023/07/12 04:03:44;;;;;;;18.60;7.78;;;;;;;;;;4385344;32;349043;-81
2023/07/12 04:06:12;;;;;;;12.48;8.00;;;;;;;;;;4397773;32;318134;-81
2023/07/12 04:08:39;;;;;;;11.70;8.87;;;;;;;;;;4384806;32;357759;-80
2023/07/12 04:11:08;;;;;;;12.57;8.55;;;;;;;;;;4382497;32;339590;-87
2023/07/12 04:13:35;;;;;;;13.80;7.97;;;;;;;;;;4368291;32;318321;-80
2023/07/12 04:16:02;;;;;;;12.70;8.55;;;;;;;;;;4399983;32;318063;-82
2023/07/12 04:18:30;;;;;;;12.10;9.02;;;;;;;;;;4381633;32;317530;-82
2023/07/12 04:20:59;;;;;;;18.42;10.10;;;;;;;;;;4399109;32;317540;-81
2023/07/12 04:23:27;;;;;;;10.98;8.48;;;;;;;;;;4389375;32;319706;-80
2023/07/12 04:26:01;;;;;;;17.73;9.52;;;;;;;;;;4400524;32;318313;-80
2023/07/12 04:28:30;;;;;;;14.40;8.53;;;;;;;;;;4388827;32;331387;-82
2023/07/12 04:30:56;;;;;;;15.85;8.75;;;;;;;;;;4396063;32;353525;-82
2023/07/12 04:33:23;;;;;;;19.20;9.35;;;;;;;;;;4390284;32;318092;-82
2023/07/12 04:35:50;;;;;;;18.50;9.20;;;;;;;;;;4392591;32;317611;-82
2023/07/12 04:38:17;;;;;;;14.18;9.30;;;;;;;;;;4389503;32;318107;-82
2023/07/12 04:40:44;;;;;;;15.82;8.10;;;;;;;;;;4399072;32;317717;-81
2023/07/12 04:43:10;;;;;;;20.77;9.35;;;;;;;;;;4400311;32;318449;-82
2023/07/12 04:45:39;;;;;;;14.30;8.50;;;;;;;;;;4387187;32;415562;-82
2023/07/12 04:48:06;;;;;;;13.75;8.40;;;;;;;;;;4399637;32;317968;-82
2023/07/12 04:50:34;;;;;;;14.63;9.15;;;;;;;;;;4390217;32;318342;-82
2023/07/12 04:53:01;;;;;;;15.77;8.77;;;;;;;;;;4400113;32;317960;-82
2023/07/12 04:55:29;;;;;;;13.40;7.47;;;;;;;;;;4374625;32;317468;-82
2023/07/12 04:57:56;;;;;;;11.68;8.02;;;;;;;;;;4398877;32;317959;-82
2023/07/12 05:00:24;;;;;;;12.18;9.02;;;;;;;;;;4390054;32;317636;-82
2023/07/12 05:02:53;;;;;;;14.55;8.65;;;;;;;;;;4400435;32;318458;-81
2023/07/12 05:05:21;;;;;;;12.30;8.57;;;;;;;;;;4388712;32;318244;-82
2023/07/12 05:07:48;;;;;;;14.10;8.65;;;;;;;;;;4400823;32;320416;-82
2023/07/12 05:10:15;;;;;;;10.32;8.18;;;;;;;;;;4389830;32;318135;-82
2023/07/12 05:12:43;;;;;;;14.27;8.65;;;;;;;;;;4394066;32;317944;-81
2023/07/12 05:15:11;;;;;;;13.93;9.27;;;;;;;;;;4378376;32;317500;-82
2023/07/12 05:17:39;;;;;;;11.02;7.70;;;;;;;;;;4386843;32;417078;-81
2023/07/12 05:20:10;;;;;;;23.17;9.15;;;;;;;;;;4399628;32;318235;-81
2023/07/12 05:22:37;;;;;;;17.65;8.00;;;;;;;;;;4386649;32;416319;-81
2023/07/12 05:25:04;;;;;;;15.60;8.27;;;;;;;;;;4399740;32;317529;-82
2023/07/12 05:27:32;;;;;;;9.20;7.80;;;;;;;;;;4391274;32;318215;-80
2023/07/12 05:30:00;;;;;;;12.27;8.98;;;;;;;;;;4394729;32;316533;-84
2023/07/12 05:32:27;;;;;;;16.10;8.98;;;;;;;;;;4379920;32;317558;-85
2023/07/12 05:34:53;;;;;;;13.73;8.57;;;;;;;;;;4398188;32;318296;-86
2023/07/12 05:37:22;;;;;;;14.05;8.88;;;;;;;;;;4389860;32;318096;-85
2023/07/12 05:39:50;;;;;;;10.18;8.15;;;;;;;;;;4399773;32;317463;-84
2023/07/12 05:42:17;;;;;;;12.45;9.23;;;;;;;;;;4389175;32;318033;-76
2023/07/12 05:44:44;;;;;;;14.63;9.35;;;;;;;;;;4396254;32;318929;-78
2023/07/12 05:47:10;;;;;;;14.48;9.82;;;;;;;;;;4395900;32;317765;-78
2023/07/12 05:49:37;;;;;;;13.43;9.38;;;;;;;;;;4381754;32;417889;-78
2023/07/12 05:52:04;;;;;;;18.90;10.27;;;;;;;;;;4384332;32;317664;-78
2023/07/12 05:54:32;;;;;;;12.68;8.50;;;;;;;;;;4382367;32;319171;-78
2023/07/12 05:56:59;;;;;;;18.87;10.15;;;;;;;;;;4395560;32;318504;-78
2023/07/12 05:59:26;;;;;;;11.35;9.50;;;;;;;;;;4384190;32;318967;-79
2023/07/12 06:01:52;;;;;;;14.75;9.98;;;;;;;;;;4397930;32;318233;-78
2023/07/12 06:04:19;;;;;;;19.45;9.75;;;;;;;;;;4388663;32;317690;-79
2023/07/12 06:06:46;;;;;;;18.10;9.65;;;;;;;;;;4398777;32;318180;-79
2023/07/12 06:09:13;;;;;;;17.23;8.73;;;;;;;;;;4387832;32;318241;-78
2023/07/12 06:11:43;;;;;;;24.15;9.00;;;;;;;;;;4399197;32;317863;-80
2023/07/12 06:14:09;;;;;;;11.43;9.02;;;;;;;;;;4383264;32;318192;-80
2023/07/12 06:16:36;;;;;;;18.98;10.00;;;;;;;;;;4370229;32;417542;-79
2023/07/12 06:19:06;;;;;;;11.90;8.80;;;;;;;;;;4397652;32;318783;-77
2023/07/12 06:21:32;;;;;;;17.50;11.43;;;;;;;;;;4385084;32;318378;-77
2023/07/12 06:23:59;;;;;;;14.73;9.45;;;;;;;;;;4397139;32;319534;-77
2023/07/12 06:26:28;;;;;;;19.80;10.13;;;;;;;;;;4387482;32;317864;-79
2023/07/12 06:28:56;;;;;;;16.23;9.45;;;;;;;;;;4397301;32;319660;-77
2023/07/12 06:31:23;;;;;;;11.30;9.57;;;;;;;;;;4386884;32;317663;-77
2023/07/12 06:33:50;;;;;;;15.32;9.70;;;;;;;;;;4383403;32;317968;-77
2023/07/12 06:36:17;;;;;;;13.77;9.10;;;;;;;;;;4388180;32;318747;-77
2023/07/12 06:38:46;;;;;;;10.98;8.35;;;;;;;;;;4397968;32;317681;-76
2023/07/12 06:41:13;;;;;;;18.15;9.57;;;;;;;;;;4388750;32;318361;-77
2023/07/12 06:43:40;;;;;;;17.73;9.18;;;;;;;;;;4397975;32;318337;-77
2023/07/12 06:46:10;;;;;;;23.75;8.82;;;;;;;;;;4396891;32;318388;-77
2023/07/12 06:48:37;;;;;;;14.05;9.73;;;;;;;;;;4384292;32;417475;-78
2023/07/12 06:51:04;;;;;;;15.05;9.25;;;;;;;;;;4398066;32;317591;-79
2023/07/12 06:53:31;;;;;;;14.43;9.70;;;;;;;;;;4387184;32;317740;-77
2023/07/12 06:55:57;;;;;;;14.23;9.25;;;;;;;;;;4398219;32;319395;-79
2023/07/12 06:58:24;;;;;;;12.18;8.23;;;;;;;;;;4381047;32;317619;-77
2023/07/12 07:00:51;;;;;;;11.25;8.73;;;;;;;;;;4396633;32;318614;-82
2023/07/12 07:03:19;;;;;;;13.62;9.13;;;;;;;;;;4388173;32;317799;-77
2023/07/12 07:05:47;;;;;;;12.45;9.70;;;;;;;;;;4398131;32;318615;-77
2023/07/12 07:08:16;;;;;;;13.73;8.85;;;;;;;;;;4388304;32;318588;-78
2023/07/12 07:10:43;;;;;;;14.57;9.82;;;;;;;;;;4397173;32;357575;-79
2023/07/12 07:13:10;;;;;;;11.32;9.90;;;;;;;;;;4392347;32;318756;-79
2023/07/12 07:15:37;;;;;;;13.32;9.52;;;;;;;;;;4383692;32;417268;-78
2023/07/12 07:18:04;;;;;;;17.98;10.32;;;;;;;;;;4395455;32;317499;-79
2023/07/12 07:20:32;;;;;;;14.82;9.55;;;;;;;;;;4385477;32;319575;-80
2023/07/12 07:22:59;;;;;;;16.37;9.50;;;;;;;;;;4395139;32;317797;-79
2023/07/12 07:25:27;;;;;;;15.52;9.75;;;;;;;;;;4385753;32;341987;-82
2023/07/12 07:27:54;;;;;;;9.02;7.62;;;;;;;;;;4395038;32;317677;-81
2023/07/12 07:30:21;;;;;;;12.52;8.45;;;;;;;;;;4383782;32;317622;-82
2023/07/12 07:32:48;;;;;;;12.27;9.00;;;;;;;;;;4393947;32;317616;-81
2023/07/12 07:35:15;;;;;;;18.15;8.57;;;;;;;;;;4384802;32;361669;-81
2023/07/12 07:37:43;;;;;;;11.55;8.80;;;;;;;;;;4395777;32;318483;-82
2023/07/12 07:40:11;;;;;;;14.63;8.25;;;;;;;;;;4394300;32;338185;-81
2023/07/12 07:42:38;;;;;;;15.70;9.63;;;;;;;;;;4368753;32;417343;-81
2023/07/12 07:45:05;;;;;;;13.35;8.02;;;;;;;;;;4391225;32;318551;-81
2023/07/12 07:47:34;;;;;;;11.02;8.15;;;;;;;;;;4386060;32;325275;-81
2023/07/12 07:50:01;;;;;;;18.23;8.30;;;;;;;;;;4400936;32;317652;-81
2023/07/12 07:52:28;;;;;;;11.20;8.27;;;;;;;;;;4390672;32;317977;-82
2023/07/12 07:54:56;;;;;;;21.12;8.55;;;;;;;;;;4400666;32;318029;-81
2023/07/12 07:57:23;;;;;;;15.30;9.63;;;;;;;;;;4391007;32;317609;-82
2023/07/12 07:59:50;;;;;;;14.87;8.10;;;;;;;;;;4399029;32;319073;-81
2023/07/12 08:02:16;;;;;;;14.57;9.10;;;;;;;;;;4390770;32;317664;-81
2023/07/12 08:04:43;;;;;;;10.05;7.75;;;;;;;;;;4399660;32;318229;-78
2023/07/12 08:07:13;;;;;;;10.65;8.13;;;;;;;;;;4400623;32;317852;-78
2023/07/12 08:09:42;;;;;;;13.07;8.82;;;;;;;;;;4387422;32;417259;-78
2023/07/12 08:12:11;;;;;;;13.48;8.35;;;;;;;;;;4396387;32;318721;-78
2023/07/12 08:14:37;;;;;;;11.63;8.52;;;;;;;;;;4373571;32;417586;-78
2023/07/12 08:17:05;;;;;;;10.63;8.10;;;;;;;;;;4393405;32;318801;-78
2023/07/12 08:19:31;;;;;;;14.00;8.65;;;;;;;;;;4390588;32;317793;-78
2023/07/12 08:21:58;;;;;;;10.88;8.20;;;;;;;;;;4396911;32;317619;-78
2023/07/12 08:24:25;;;;;;;11.12;7.80;;;;;;;;;;4389585;32;317714;-78
2023/07/12 08:26:52;;;;;;;10.88;8.30;;;;;;;;;;4399954;32;341060;-78
2023/07/12 08:29:20;;;;;;;18.00;8.30;;;;;;;;;;4390411;32;318262;-78
2023/07/12 08:31:46;;;;;;;11.82;8.38;;;;;;;;;;4400685;32;318072;-78
2023/07/12 08:34:14;;;;;;;10.85;8.10;;;;;;;;;;4389414;32;318792;-78
2023/07/12 08:36:41;;;;;;;19.40;8.32;;;;;;;;;;4397651;32;317792;-78
2023/07/12 08:39:08;;;;;;;10.82;8.45;;;;;;;;;;4400078;32;317700;-78
2023/07/12 08:41:37;;;;;;;13.10;7.95;;;;;;;;;;4390322;32;318255;-78
2023/07/12 08:44:10;;;;;;;11.93;9.30;;;;;;;;;;4399271;32;318960;-78
2023/07/12 08:46:42;;;;;;;9.90;7.40;;;;;;;;;;4390434;32;317761;-78
2023/07/12 08:49:11;;;;;;;11.63;8.35;;;;;;;;;;4399157;32;316695;-78
2023/07/12 08:51:39;;;;;;;16.02;7.62;;;;;;;;;;4386093;32;417771;-78
2023/07/12 08:54:08;;;;;;;11.30;7.80;;;;;;;;;;4399300;32;318158;-78
2023/07/12 08:56:35;;;;;;;10.32;8.85;;;;;;;;;;4388388;32;317644;-78
2023/07/12 08:59:02;;;;;;;11.90;7.65;;;;;;;;;;4399949;32;318127;-78
2023/07/12 09:01:42;;;;;;;12.25;8.07;;;;;;;;;;4389374;32;317900;-78
2023/07/12 09:04:23;;;;;;;8.27;6.97;;;;;;;;;;4398765;32;317733;-78
2023/07/12 09:06:51;;;;;;;11.50;7.70;;;;;;;;;;4385684;32;416082;-78
2023/07/12 09:09:19;;;;;;;17.35;7.80;;;;;;;;;;4388388;32;318111;-77
2023/07/12 09:11:46;;;;;;;13.98;8.75;;;;;;;;;;4399634;32;318443;-78
2023/07/12 09:14:17;;;;;;;9.55;7.07;;;;;;;;;;4387945;32;318335;-78
2023/07/12 09:16:48;;;;;;;11.35;7.25;;;;;;;;;;4399398;32;317675;-78
2023/07/12 09:19:19;;;;;;;12.93;8.18;;;;;;;;;;4387174;32;369950;-77
2023/07/12 09:21:51;;;;;;;22.08;10.52;;;;;;;;;;4397504;32;318129;-77
2023/07/12 09:24:23;;;;;;;13.38;8.27;;;;;;;;;;4389101;32;319337;-78
2023/07/12 09:26:50;;;;;;;16.12;7.20;;;;;;;;;;4385803;32;317431;-78
2023/07/12 09:29:21;;;;;;;8.73;7.15;;;;;;;;;;4384714;32;318137;-78
2023/07/12 09:31:51;;;;;;;11.50;8.13;;;;;;;;;;4397791;32;317329;-78
2023/07/12 09:34:21;;;;;;;8.68;7.35;;;;;;;;;;4389776;32;317512;-78
2023/07/12 09:36:56;;;;;;;17.80;7.95;;;;;;;;;;4397898;32;317651;-78
2023/07/12 09:39:23;;;;;;;12.82;8.20;;;;;;;;;;4389387;32;318332;-79
2023/07/12 09:41:51;;;;;;;9.90;7.87;;;;;;;;;;4399301;32;318018;-78
2023/07/12 09:44:18;;;;;;;10.70;7.57;;;;;;;;;;4389230;32;317435;-78
2023/07/12 09:46:53;;;;;;;12.63;7.47;;;;;;;;;;4398886;32;331208;-78
2023/07/12 09:49:23;;;;;;;11.83;8.03;;;;;;;;;;4387219;32;357961;-78
2023/07/12 09:52:01;;;;;;;12.80;7.47;;;;;;;;;;4398108;32;317536;-78
2023/07/12 09:54:36;;;;;;;12.82;7.05;;;;;;;;;;4387820;32;317704;-78
2023/07/12 09:57:10;;;;;;;8.95;7.35;;;;;;;;;;4398876;32;318496;-78
2023/07/12 09:59:48;;;;;;;11.73;7.10;;;;;;;;;;4368031;32;416038;-78
2023/07/12 10:02:26;;;;;;;12.52;7.15;;;;;;;;;;4385561;32;318553;-78
2023/07/12 10:04:56;;;;;;;13.88;7.60;;;;;;;;;;4398990;32;317692;-78
2023/07/12 10:07:45;;;;;;;11.00;7.35;;;;;;;;;;4387897;32;318388;-78
2023/07/12 10:10:20;;;;;;;8.63;7.57;;;;;;;;;;4388831;32;318289;-80
2023/07/12 10:12:54;;;;;;;11.50;7.60;;;;;;;;;;4393362;32;317192;-78
2023/07/12 10:15:21;;;;;;;9.02;7.12;;;;;;;;;;4389836;32;318194;-90
2023/07/12 10:17:49;;;;;;;12.18;7.62;;;;;;;;;;4398714;32;317318;-78
2023/07/12 10:20:25;;;;;;;7.05;6.35;;;;;;;;;;4384948;32;325144;-78
2023/07/12 10:22:54;;;;;;;9.38;6.85;;;;;;;;;;4399038;32;317239;-78
2023/07/12 10:25:24;;;;;;;17.62;8.10;;;;;;;;;;4389024;32;316522;-78
2023/07/12 10:27:58;;;;;;;10.63;7.10;;;;;;;;;;4398676;32;318161;-78
2023/07/12 10:30:27;;;;;;;12.32;8.18;;;;;;;;;;4386772;32;354769;-78
2023/07/12 10:33:01;;;;;;;8.05;6.03;;;;;;;;;;4398625;32;318888;-80
2023/07/12 10:35:38;;;;;;;11.73;6.62;;;;;;;;;;4388242;32;317297;-78
2023/07/12 10:38:11;;;;;;;9.13;6.22;;;;;;;;;;4395621;32;318600;-78
2023/07/12 10:40:43;;;;;;;7.30;6.20;;;;;;;;;;4382831;32;416275;-79
2023/07/12 10:43:16;;;;;;;10.55;6.53;;;;;;;;;;4396674;32;317195;-78
2023/07/12 10:45:44;;;;;;;10.60;6.70;;;;;;;;;;4383913;32;417737;-78
2023/07/12 10:48:23;;;;;;;8.88;6.43;;;;;;;;;;4395693;32;318022;-78
2023/07/12 10:50:52;;;;;;;8.55;7.57;;;;;;;;;;4384110;32;418348;-78
2023/07/12 10:53:21;;;;;;;11.00;7.07;;;;;;;;;;4374228;32;316884;-78
2023/07/12 10:56:06;;;;;;;9.02;6.87;;;;;;;;;;4395532;32;318321;-78
2023/07/12 10:58:50;;;;;;;14.02;6.68;;;;;;;;;;4394285;32;317058;-79
2023/07/12 11:01:37;;;;;;;8.63;6.28;;;;;;;;;;4396879;32;317640;-78
2023/07/12 11:04:09;;;;;;;10.27;6.80;;;;;;;;;;4365230;32;417901;-78
2023/07/12 11:06:36;;;;;;;8.75;6.15;;;;;;;;;;4387472;32;348257;-78
2023/07/12 11:09:09;;;;;;;9.45;6.45;;;;;;;;;;4398129;32;316443;-78
2023/07/12 11:11:50;;;;;;;12.07;6.00;;;;;;;;;;4387143;32;317275;-78
2023/07/12 11:14:26;;;;;;;10.30;5.95;;;;;;;;;;4382912;32;317688;-78
2023/07/12 11:17:11;;;;;;;10.25;5.90;;;;;;;;;;4372679;32;318300;-78
2023/07/12 11:19:46;;;;;;;8.07;5.60;;;;;;;;;;4373009;32;318159;-78
2023/07/12 11:22:17;;;;;;;9.43;5.87;;;;;;;;;;4389549;32;316556;-78
2023/07/12 11:24:53;;;;;;;14.52;6.53;;;;;;;;;;4383087;32;317637;-79
2023/07/12 11:27:39;;;;;;;6.82;5.95;;;;;;;;;;4396263;32;318163;-79
2023/07/12 11:30:23;;;;;;;6.68;5.97;;;;;;;;;;4376544;32;417368;-78
2023/07/12 11:32:54;;;;;;;7.07;4.78;;;;;;;;;;4368831;32;417127;-78
2023/07/12 11:35:32;;;;;;;6.78;4.35;;;;;;;;;;4397024;32;317099;-78
2023/07/12 11:37:58;;;;;;;13.27;4.95;;;;;;;;;;4384920;32;417852;-78
2023/07/12 11:40:27;;;;;;;7.18;4.75;;;;;;;;;;4388080;32;318111;-78
2023/07/12 11:42:54;;;;;;;5.28;3.80;;;;;;;;;;4396123;32;317514;-78
2023/07/12 11:45:23;;;;;;;4.68;4.03;;;;;;;;;;4396373;32;335074;-78
2023/07/12 11:47:52;;;;;;;5.15;4.05;;;;;;;;;;4387498;32;317110;-78
2023/07/12 11:50:24;;;;;;;5.40;3.85;;;;;;;;;;4396605;32;317601;-78
2023/07/12 11:52:53;;;;;;;8.48;3.67;;;;;;;;;;4383758;32;416244;-78
2023/07/12 11:55:21;;;;;;;5.35;3.47;;;;;;;;;;4397714;32;316676;-78
2023/07/12 11:57:49;;;;;;;5.85;4.30;;;;;;;;;;4386603;32;317365;-78
2023/07/12 12:00:20;;;;;;;8.10;4.05;;;;;;;;;;4389372;32;317217;-78
2023/07/12 12:02:50;;;;;;;5.55;4.25;;;;;;;;;;4385466;32;356433;-78
2023/07/12 12:05:21;;;;;;;4.68;3.90;;;;;;;;;;4397753;32;317228;-78
2023/07/12 12:07:49;;;;;;;5.10;3.50;;;;;;;;;;4387799;32;318144;-78
2023/07/12 12:10:23;;;;;;;6.45;4.35;;;;;;;;;;4396812;32;316441;-78
2023/07/12 12:12:50;;;;;;;6.70;3.92;;;;;;;;;;4384873;32;417800;-78
2023/07/12 12:15:19;;;;;;;10.63;4.32;;;;;;;;;;4397433;32;316801;-78
2023/07/12 12:17:47;;;;;;;6.87;4.07;;;;;;;;;;4386982;32;318378;-78
2023/07/12 12:20:15;;;;;;;5.00;4.03;;;;;;;;;;4397468;32;317457;-78
2023/07/12 12:22:49;;;;;;;7.87;4.10;;;;;;;;;;4387692;32;317606;-78
2023/07/12 12:25:22;;;;;;;7.47;3.67;;;;;;;;;;4397698;32;316953;-78
2023/07/12 12:27:50;;;;;;;9.35;3.58;;;;;;;;;;4387670;32;317356;-89
2023/07/12 12:30:21;;;;;;;7.10;3.83;;;;;;;;;;4396324;32;317297;-78
2023/07/12 12:33:04;;;;;;;7.07;3.70;;;;;;;;;;4385155;32;316444;-78
2023/07/12 12:35:33;;;;;;;5.87;4.07;;;;;;;;;;4388468;32;330979;-78
2023/07/12 12:38:03;;;;;;;4.60;3.83;;;;;;;;;;4400231;32;317270;-78
2023/07/12 12:40:34;;;;;;;5.85;3.60;;;;;;;;;;4390427;32;318074;-78
2023/07/12 12:43:03;;;;;;;12.10;3.85;;;;;;;;;;4399933;32;317569;-78
2023/07/12 12:45:32;;;;;;;9.25;4.45;;;;;;;;;;4390423;32;318382;-78
2023/07/12 12:47:59;;;;;;;7.05;3.83;;;;;;;;;;4399927;32;317561;-78
2023/07/12 12:50:27;;;;;;;6.75;3.53;;;;;;;;;;4390476;32;316935;-78
2023/07/12 12:52:59;;;;;;;4.45;3.47;;;;;;;;;;4399063;32;317729;-78
2023/07/12 12:55:26;;;;;;;5.55;3.17;;;;;;;;;;4389177;32;317259;-79
2023/07/12 12:57:55;;;;;;;4.55;3.30;;;;;;;;;;4398745;32;317124;-78
2023/07/12 13:00:24;;;;;;;6.43;3.55;;;;;;;;;;4399957;32;317340;-78
2023/07/12 13:02:53;;;;;;;4.43;3.45;;;;;;;;;;4387179;32;416781;-79
2023/07/12 13:05:22;;;;;;;7.30;3.72;;;;;;;;;;4399866;32;316744;-81
2023/07/12 13:07:50;;;;;;;7.93;4.32;;;;;;;;;;4386080;32;418280;-85
2023/07/12 13:10:19;;;;;;;9.85;3.87;;;;;;;;;;4400075;32;317123;-83
2023/07/12 13:12:45;;;;;;;6.75;3.28;;;;;;;;;;4382496;32;317209;-83
2023/07/12 13:15:18;;;;;;;6.03;3.62;;;;;;;;;;4397723;32;317455;-83
2023/07/12 13:17:45;;;;;;;8.45;3.35;;;;;;;;;;4386912;32;316599;-89
2023/07/12 13:20:14;;;;;;;4.60;3.37;;;;;;;;;;4397949;32;316874;-83
2023/07/12 13:22:43;;;;;;;6.87;3.70;;;;;;;;;;4387711;32;317854;-83
2023/07/12 13:25:10;;;;;;;5.22;3.75;;;;;;;;;;4398498;32;316583;-90
2023/07/12 13:27:39;;;;;;;5.40;3.58;;;;;;;;;;4387313;32;317166;-90
2023/07/12 13:30:12;;;;;;;4.37;3.80;;;;;;;;;;4390575;32;317000;-89
2023/07/12 13:32:40;;;;;;;4.62;3.62;;;;;;;;;;4387030;32;316667;-90
2023/07/12 13:35:08;;;;;;;6.20;3.80;;;;;;;;;;4398187;32;317206;-90
2023/07/12 13:37:38;;;;;;;6.45;3.75;;;;;;;;;;4388086;32;316670;-90
2023/07/12 13:40:11;;;;;;;6.70;4.57;;;;;;;;;;4399389;32;327879;-89
2023/07/12 13:42:39;;;;;;;4.90;3.72;;;;;;;;;;4386993;32;345381;-90
2023/07/12 13:45:09;;;;;;;6.22;3.60;;;;;;;;;;4399487;32;317183;-91
2023/07/12 13:47:36;;;;;;;8.88;4.47;;;;;;;;;;4387794;32;317823;-90
2023/07/12 13:50:06;;;;;;;6.35;3.75;;;;;;;;;;4399012;32;317071;-90
2023/07/12 13:52:34;;;;;;;6.60;4.35;;;;;;;;;;4388964;32;317436;-90
2023/07/12 13:55:01;;;;;;;6.22;4.20;;;;;;;;;;4399222;32;316716;-93
2023/07/12 13:57:33;;;;;;;7.62;3.87;;;;;;;;;;4386847;32;346702;-90
2023/07/12 14:00:00;;;;;;;6.80;4.12;;;;;;;;;;4398220;32;317614;-91
2023/07/12 14:02:31;;;;;;;7.60;4.50;;;;;;;;;;4386957;32;316487;-90
2023/07/12 14:04:59;;;;;;;5.90;3.78;;;;;;;;;;4398389;32;317507;-79
2023/07/12 14:07:32;;;;;;;6.03;3.42;;;;;;;;;;4387553;32;317266;-81
2023/07/12 14:09:59;;;;;;;8.73;4.12;;;;;;;;;;4398966;32;317242;-81
2023/07/12 14:12:27;;;;;;;6.20;4.22;;;;;;;;;;4388599;32;317369;-78
2023/07/12 14:14:54;;;;;;;7.28;3.30;;;;;;;;;;4397375;32;317141;-78
2023/07/12 14:17:25;;;;;;;4.60;3.60;;;;;;;;;;4397745;32;317027;-77
2023/07/12 14:19:54;;;;;;;5.53;3.83;;;;;;;;;;4385853;32;417592;-78
2023/07/12 14:22:23;;;;;;;7.68;3.78;;;;;;;;;;4398489;32;317118;-82
2023/07/12 14:24:52;;;;;;;6.97;3.92;;;;;;;;;;4385471;32;416735;-80
2023/07/12 14:27:21;;;;;;;6.55;3.25;;;;;;;;;;4396728;32;317205;-81
2023/07/12 14:29:50;;;;;;;5.57;3.33;;;;;;;;;;4383166;32;317091;-78
2023/07/12 14:32:19;;;;;;;8.32;4.05;;;;;;;;;;4397450;32;348449;-78